Zapata, TX

17:30 CDT le 30 août 2016 (GMT -0500)
Zapata | | Change Station

Alt. 423 ft 26.97 °N, 99.25 °W | Updated 15 minutes ago

Scattered Clouds
Nuages épars
87 ° F
Paraît 92 ° F
N
13
Vent Variable Vent de NE
Gusts 16 mph

Aujourd'hui
Haut(e) -- | Bas -- ° F
--% Risque de précip.
Hier
Haut(e) -- | Bas -- ° F
Precip. -- pouce
Pression 29.87 pouce
Visibilité 10.0 Miles terrestres
Nuages Nuages épars 3000 ft
Nuages épars 3500 ft
indice de chaleur 92 ° F
Point de rosée 70 ° F
Humidité 58%
Précipitations 0.00 pouce
Profondeur de la couche neigeuse Non disponible.
7:15 AM 7:58 PM
Lune descendante, 2% visible
METAR KAPY 302215Z AUTO 05011G14KT 10SM SCT030 SCT035 30/21 A2987 RMK AO2 T03060214
Pression 29.87 pouce
Visibilité 10.0 Miles terrestres
Nuages Nuages épars 3000 ft
Nuages épars 3500 ft
indice de chaleur 92 ° F
Point de rosée 70 ° F
Humidité 58%
Précipitations 0.00 pouce
Profondeur de la couche neigeuse Non disponible.
7:15 AM 7:58 PM
Lune descendante, 2% visible
METAR KAPY 302215Z AUTO 05011G14KT 10SM SCT030 SCT035 30/21 A2987 RMK AO2 T03060214

10-Day Weather Forecast

Almanac

Astronomie

Aug. 30, 2016 Lever Coucher
Temps réel
Crépuscule civil
Crépuscule nautique
Crépuscule astronomique
Lune
Durée de lumière visible
Longueur du jour
Tomorrow will be .
, % of the Moon is Illuminated

Extrêmes aujourd'hui

State Highs State Lows

Community

WunderPhotos

Upload Photos

1,935,911 Photos téléchargées !

WunderBlog® & News

Nearby

Qualité de l'air

  Qualité de l'air Indice de la qualité de l'air Polluant
Not available.

Épaisseur de neige

Station Depth Altitude

Activité sismique

Ville Distance Mag. Time & Date
Minimum magnitude displayed is 2.5.

Températures des eaux côtières

Lieu Température

Stations

Stations météo à proximité

Emplacement de la station Température Refroidissement éolien Point de rosée Humidité Vent Precip. Alt. Mise à jour Type
                   

Watches & Warnings

There are currently no watches in effect.